sensor_id;sensor_type;location;lat;lon;timestamp;P1;durP1;ratioP1;P2;durP2;ratioP2
70313;SDS011;71040;47.526;18.986;2024-03-08T00:00:58;6.07;;;4.82;;
70313;SDS011;71040;47.526;18.986;2024-03-08T00:06:01;7.97;;;5.75;;
70313;SDS011;71040;47.526;18.986;2024-03-08T00:11:04;7.28;;;5.43;;
70313;SDS011;71040;47.526;18.986;2024-03-08T00:16:05;10.20;;;5.55;;
70313;SDS011;71040;47.526;18.986;2024-03-08T00:21:05;8.80;;;5.90;;
70313;SDS011;71040;47.526;18.986;2024-03-08T00:26:06;7.07;;;5.37;;
70313;SDS011;71040;47.526;18.986;2024-03-08T00:31:09;7.65;;;5.78;;
70313;SDS011;71040;47.526;18.986;2024-03-08T00:36:11;7.78;;;5.68;;
70313;SDS011;71040;47.526;18.986;2024-03-08T00:41:14;9.43;;;6.60;;
70313;SDS011;71040;47.526;18.986;2024-03-08T00:46:15;9.50;;;6.72;;
70313;SDS011;71040;47.526;18.986;2024-03-08T00:51:15;8.90;;;6.07;;
70313;SDS011;71040;47.526;18.986;2024-03-08T00:56:18;9.35;;;6.68;;
70313;SDS011;71040;47.526;18.986;2024-03-08T01:01:24;10.57;;;6.90;;
70313;SDS011;71040;47.526;18.986;2024-03-08T01:06:26;8.80;;;6.57;;
70313;SDS011;71040;47.526;18.986;2024-03-08T01:11:31;9.38;;;6.53;;
70313;SDS011;71040;47.526;18.986;2024-03-08T01:16:32;9.33;;;7.13;;
70313;SDS011;71040;47.526;18.986;2024-03-08T01:21:33;10.18;;;7.45;;
70313;SDS011;71040;47.526;18.986;2024-03-08T01:26:34;10.88;;;7.55;;
70313;SDS011;71040;47.526;18.986;2024-03-08T01:31:34;11.10;;;7.77;;
70313;SDS011;71040;47.526;18.986;2024-03-08T01:36:39;11.27;;;7.53;;
70313;SDS011;71040;47.526;18.986;2024-03-08T01:41:39;10.90;;;7.63;;
70313;SDS011;71040;47.526;18.986;2024-03-08T01:46:40;11.65;;;7.68;;
70313;SDS011;71040;47.526;18.986;2024-03-08T01:51:43;12.02;;;7.82;;
70313;SDS011;71040;47.526;18.986;2024-03-08T01:56:46;11.93;;;8.60;;
70313;SDS011;71040;47.526;18.986;2024-03-08T02:01:51;11.40;;;8.10;;
70313;SDS011;71040;47.526;18.986;2024-03-08T02:06:51;13.35;;;9.10;;
70313;SDS011;71040;47.526;18.986;2024-03-08T02:11:52;12.90;;;9.20;;
70313;SDS011;71040;47.526;18.986;2024-03-08T02:17:02;12.63;;;8.65;;
70313;SDS011;71040;47.526;18.986;2024-03-08T02:22:05;12.07;;;8.63;;
70313;SDS011;71040;47.526;18.986;2024-03-08T02:27:06;11.93;;;8.45;;
70313;SDS011;71040;47.526;18.986;2024-03-08T02:32:16;13.75;;;8.30;;
70313;SDS011;71040;47.526;18.986;2024-03-08T02:37:18;13.65;;;9.55;;
70313;SDS011;71040;47.526;18.986;2024-03-08T02:42:18;13.63;;;9.27;;
70313;SDS011;71040;47.526;18.986;2024-03-08T02:47:21;12.75;;;9.27;;
70313;SDS011;71040;47.526;18.986;2024-03-08T02:52:24;15.05;;;9.63;;
70313;SDS011;71040;47.526;18.986;2024-03-08T02:57:24;14.85;;;9.82;;
70313;SDS011;71040;47.526;18.986;2024-03-08T03:02:27;13.48;;;9.13;;
70313;SDS011;71040;47.526;18.986;2024-03-08T03:07:27;12.80;;;9.03;;
70313;SDS011;71040;47.526;18.986;2024-03-08T03:12:33;14.90;;;10.45;;
70313;SDS011;71040;47.526;18.986;2024-03-08T03:17:36;13.65;;;9.93;;
70313;SDS011;71040;47.526;18.986;2024-03-08T03:22:39;15.90;;;10.67;;
70313;SDS011;71040;47.526;18.986;2024-03-08T03:27:56;15.80;;;9.88;;
70313;SDS011;71040;47.526;18.986;2024-03-08T03:32:56;14.07;;;10.35;;
70313;SDS011;71040;47.526;18.986;2024-03-08T03:38:03;14.43;;;10.18;;
70313;SDS011;71040;47.526;18.986;2024-03-08T03:43:06;16.52;;;11.18;;
70313;SDS011;71040;47.526;18.986;2024-03-08T03:48:12;16.13;;;11.15;;
70313;SDS011;71040;47.526;18.986;2024-03-08T03:53:12;16.15;;;11.02;;
70313;SDS011;71040;47.526;18.986;2024-03-08T03:58:13;16.30;;;10.57;;
70313;SDS011;71040;47.526;18.986;2024-03-08T04:03:14;17.67;;;11.30;;
70313;SDS011;71040;47.526;18.986;2024-03-08T04:08:19;18.27;;;12.55;;
70313;SDS011;71040;47.526;18.986;2024-03-08T04:13:24;18.85;;;11.77;;
70313;SDS011;71040;47.526;18.986;2024-03-08T04:18:27;24.90;;;12.80;;
70313;SDS011;71040;47.526;18.986;2024-03-08T04:23:28;17.48;;;12.38;;
70313;SDS011;71040;47.526;18.986;2024-03-08T04:28:28;20.35;;;12.40;;
70313;SDS011;71040;47.526;18.986;2024-03-08T04:33:29;19.90;;;12.00;;
70313;SDS011;71040;47.526;18.986;2024-03-08T04:38:29;18.08;;;12.43;;
70313;SDS011;71040;47.526;18.986;2024-03-08T04:43:32;21.58;;;13.52;;
70313;SDS011;71040;47.526;18.986;2024-03-08T04:48:33;21.48;;;13.55;;
70313;SDS011;71040;47.526;18.986;2024-03-08T04:53:36;19.08;;;13.23;;
70313;SDS011;71040;47.526;18.986;2024-03-08T04:58:39;20.98;;;13.48;;
70313;SDS011;71040;47.526;18.986;2024-03-08T05:03:42;21.23;;;14.13;;
70313;SDS011;71040;47.526;18.986;2024-03-08T05:08:45;21.27;;;13.80;;
70313;SDS011;71040;47.526;18.986;2024-03-08T05:13:48;20.23;;;13.07;;
70313;SDS011;71040;47.526;18.986;2024-03-08T05:18:48;21.90;;;13.40;;
70313;SDS011;71040;47.526;18.986;2024-03-08T05:23:51;18.75;;;12.90;;
70313;SDS011;71040;47.526;18.986;2024-03-08T05:28:51;21.90;;;13.83;;
70313;SDS011;71040;47.526;18.986;2024-03-08T05:33:56;21.38;;;14.05;;
70313;SDS011;71040;47.526;18.986;2024-03-08T05:38:59;21.55;;;13.88;;
70313;SDS011;71040;47.526;18.986;2024-03-08T05:43:59;20.93;;;12.80;;
70313;SDS011;71040;47.526;18.986;2024-03-08T05:48:59;23.43;;;14.53;;
70313;SDS011;71040;47.526;18.986;2024-03-08T05:54:03;23.97;;;15.10;;
70313;SDS011;71040;47.526;18.986;2024-03-08T05:59:10;24.30;;;15.00;;
70313;SDS011;71040;47.526;18.986;2024-03-08T06:04:16;25.23;;;15.40;;
70313;SDS011;71040;47.526;18.986;2024-03-08T06:09:20;22.65;;;15.02;;
70313;SDS011;71040;47.526;18.986;2024-03-08T06:14:24;23.35;;;14.90;;
70313;SDS011;71040;47.526;18.986;2024-03-08T06:19:24;24.48;;;15.30;;
70313;SDS011;71040;47.526;18.986;2024-03-08T06:24:25;23.65;;;15.20;;
70313;SDS011;71040;47.526;18.986;2024-03-08T06:29:25;24.30;;;15.77;;
70313;SDS011;71040;47.526;18.986;2024-03-08T06:34:26;22.52;;;14.50;;
70313;SDS011;71040;47.526;18.986;2024-03-08T06:39:27;22.77;;;14.80;;
70313;SDS011;71040;47.526;18.986;2024-03-08T06:44:31;23.50;;;14.95;;
70313;SDS011;71040;47.526;18.986;2024-03-08T06:49:34;23.20;;;14.68;;
70313;SDS011;71040;47.526;18.986;2024-03-08T06:54:35;22.87;;;15.43;;
70313;SDS011;71040;47.526;18.986;2024-03-08T06:59:36;23.77;;;15.25;;
70313;SDS011;71040;47.526;18.986;2024-03-08T07:04:39;24.58;;;15.45;;
70313;SDS011;71040;47.526;18.986;2024-03-08T07:09:44;23.75;;;14.88;;
70313;SDS011;71040;47.526;18.986;2024-03-08T07:14:45;24.02;;;15.25;;
70313;SDS011;71040;47.526;18.986;2024-03-08T07:19:45;24.10;;;15.77;;
70313;SDS011;71040;47.526;18.986;2024-03-08T07:24:49;24.63;;;15.13;;
70313;SDS011;71040;47.526;18.986;2024-03-08T07:30:10;23.35;;;15.48;;
70313;SDS011;71040;47.526;18.986;2024-03-08T07:35:11;23.95;;;14.93;;
70313;SDS011;71040;47.526;18.986;2024-03-08T07:40:14;24.17;;;15.35;;
70313;SDS011;71040;47.526;18.986;2024-03-08T07:45:20;23.25;;;15.20;;
70313;SDS011;71040;47.526;18.986;2024-03-08T07:50:25;22.52;;;15.25;;
70313;SDS011;71040;47.526;18.986;2024-03-08T07:55:29;21.55;;;14.63;;
70313;SDS011;71040;47.526;18.986;2024-03-08T08:00:32;22.95;;;14.73;;
70313;SDS011;71040;47.526;18.986;2024-03-08T08:05:32;24.65;;;15.35;;
70313;SDS011;71040;47.526;18.986;2024-03-08T08:10:42;22.98;;;15.23;;
70313;SDS011;71040;47.526;18.986;2024-03-08T08:15:47;25.27;;;15.45;;
70313;SDS011;71040;47.526;18.986;2024-03-08T08:20:50;27.67;;;16.77;;
70313;SDS011;71040;47.526;18.986;2024-03-08T08:25:58;24.60;;;15.93;;
70313;SDS011;71040;47.526;18.986;2024-03-08T08:31:07;24.65;;;15.23;;
70313;SDS011;71040;47.526;18.986;2024-03-08T08:36:08;25.92;;;16.85;;
70313;SDS011;71040;47.526;18.986;2024-03-08T08:41:10;28.23;;;16.92;;
70313;SDS011;71040;47.526;18.986;2024-03-08T08:46:11;23.80;;;15.73;;
70313;SDS011;71040;47.526;18.986;2024-03-08T08:51:13;24.17;;;15.02;;
70313;SDS011;71040;47.526;18.986;2024-03-08T08:56:13;27.40;;;16.48;;
70313;SDS011;71040;47.526;18.986;2024-03-08T09:01:19;26.55;;;15.88;;
70313;SDS011;71040;47.526;18.986;2024-03-08T09:06:22;28.83;;;16.92;;
70313;SDS011;71040;47.526;18.986;2024-03-08T09:11:25;26.33;;;16.30;;
70313;SDS011;71040;47.526;18.986;2024-03-08T09:16:30;24.60;;;15.55;;
70313;SDS011;71040;47.526;18.986;2024-03-08T09:21:31;26.75;;;16.67;;
70313;SDS011;71040;47.526;18.986;2024-03-08T09:26:34;25.52;;;15.43;;
70313;SDS011;71040;47.526;18.986;2024-03-08T09:31:35;25.88;;;16.13;;
70313;SDS011;71040;47.526;18.986;2024-03-08T09:36:38;26.05;;;15.45;;
70313;SDS011;71040;47.526;18.986;2024-03-08T09:41:41;26.48;;;16.45;;
70313;SDS011;71040;47.526;18.986;2024-03-08T09:46:42;25.40;;;16.75;;
70313;SDS011;71040;47.526;18.986;2024-03-08T09:51:44;28.40;;;16.45;;
70313;SDS011;71040;47.526;18.986;2024-03-08T09:56:48;28.45;;;16.02;;
70313;SDS011;71040;47.526;18.986;2024-03-08T10:01:51;26.50;;;16.25;;
70313;SDS011;71040;47.526;18.986;2024-03-08T10:07:04;27.17;;;16.75;;
70313;SDS011;71040;47.526;18.986;2024-03-08T10:12:07;27.05;;;16.80;;
70313;SDS011;71040;47.526;18.986;2024-03-08T10:17:09;25.00;;;16.20;;
70313;SDS011;71040;47.526;18.986;2024-03-08T10:22:15;26.27;;;16.83;;
70313;SDS011;71040;47.526;18.986;2024-03-08T10:27:18;29.70;;;17.83;;
70313;SDS011;71040;47.526;18.986;2024-03-08T10:32:19;26.80;;;16.35;;
70313;SDS011;71040;47.526;18.986;2024-03-08T10:37:21;26.02;;;16.77;;
70313;SDS011;71040;47.526;18.986;2024-03-08T10:42:27;29.48;;;17.55;;
70313;SDS011;71040;47.526;18.986;2024-03-08T10:47:29;28.20;;;17.48;;
70313;SDS011;71040;47.526;18.986;2024-03-08T10:52:31;29.13;;;17.63;;
70313;SDS011;71040;47.526;18.986;2024-03-08T10:57:34;26.63;;;16.65;;
70313;SDS011;71040;47.526;18.986;2024-03-08T11:02:39;26.98;;;16.58;;
70313;SDS011;71040;47.526;18.986;2024-03-08T11:07:44;25.48;;;15.35;;
70313;SDS011;71040;47.526;18.986;2024-03-08T11:12:45;26.88;;;17.02;;
70313;SDS011;71040;47.526;18.986;2024-03-08T11:17:48;28.38;;;17.17;;
70313;SDS011;71040;47.526;18.986;2024-03-08T11:28:06;26.17;;;16.02;;
70313;SDS011;71040;47.526;18.986;2024-03-08T11:33:18;25.48;;;16.73;;
70313;SDS011;71040;47.526;18.986;2024-03-08T11:38:23;26.17;;;16.00;;
70313;SDS011;71040;47.526;18.986;2024-03-08T11:43:27;24.45;;;15.57;;
70313;SDS011;71040;47.526;18.986;2024-03-08T11:48:31;25.90;;;16.10;;
70313;SDS011;71040;47.526;18.986;2024-03-08T11:53:31;24.42;;;15.23;;
70313;SDS011;71040;47.526;18.986;2024-03-08T11:58:35;27.05;;;16.88;;
70313;SDS011;71040;47.526;18.986;2024-03-08T12:03:41;26.50;;;16.30;;
70313;SDS011;71040;47.526;18.986;2024-03-08T12:08:48;24.10;;;16.00;;
70313;SDS011;71040;47.526;18.986;2024-03-08T12:13:49;27.25;;;15.30;;
70313;SDS011;71040;47.526;18.986;2024-03-08T12:18:52;24.80;;;15.50;;
70313;SDS011;71040;47.526;18.986;2024-03-08T12:24:08;22.48;;;14.60;;
70313;SDS011;71040;47.526;18.986;2024-03-08T12:29:19;23.35;;;14.73;;
70313;SDS011;71040;47.526;18.986;2024-03-08T12:34:28;22.60;;;15.05;;
70313;SDS011;71040;47.526;18.986;2024-03-08T12:39:29;24.07;;;14.77;;
70313;SDS011;71040;47.526;18.986;2024-03-08T12:44:30;24.10;;;15.50;;
70313;SDS011;71040;47.526;18.986;2024-03-08T12:49:33;23.63;;;14.77;;
70313;SDS011;71040;47.526;18.986;2024-03-08T12:54:33;24.10;;;15.07;;
70313;SDS011;71040;47.526;18.986;2024-03-08T12:59:38;24.48;;;14.48;;
70313;SDS011;71040;47.526;18.986;2024-03-08T13:04:39;23.17;;;15.48;;
70313;SDS011;71040;47.526;18.986;2024-03-08T13:09:39;21.50;;;14.73;;
70313;SDS011;71040;47.526;18.986;2024-03-08T13:14:43;24.13;;;14.20;;
70313;SDS011;71040;47.526;18.986;2024-03-08T13:19:44;23.33;;;15.32;;
70313;SDS011;71040;47.526;18.986;2024-03-08T13:24:44;22.70;;;14.38;;
70313;SDS011;71040;47.526;18.986;2024-03-08T13:29:46;21.48;;;14.30;;
70313;SDS011;71040;47.526;18.986;2024-03-08T13:34:51;23.15;;;14.90;;
70313;SDS011;71040;47.526;18.986;2024-03-08T13:39:55;22.77;;;14.50;;
70313;SDS011;71040;47.526;18.986;2024-03-08T13:45:00;22.80;;;15.02;;
70313;SDS011;71040;47.526;18.986;2024-03-08T13:50:03;24.50;;;15.40;;
70313;SDS011;71040;47.526;18.986;2024-03-08T13:55:14;21.92;;;14.68;;
70313;SDS011;71040;47.526;18.986;2024-03-08T14:00:14;21.55;;;14.15;;
70313;SDS011;71040;47.526;18.986;2024-03-08T14:05:17;23.88;;;14.98;;
70313;SDS011;71040;47.526;18.986;2024-03-08T14:10:19;22.50;;;14.57;;
70313;SDS011;71040;47.526;18.986;2024-03-08T14:15:22;24.88;;;15.45;;
70313;SDS011;71040;47.526;18.986;2024-03-08T14:20:25;24.33;;;15.35;;
70313;SDS011;71040;47.526;18.986;2024-03-08T14:25:25;21.20;;;13.90;;
70313;SDS011;71040;47.526;18.986;2024-03-08T14:30:26;21.55;;;14.60;;
70313;SDS011;71040;47.526;18.986;2024-03-08T14:35:32;22.85;;;14.18;;
70313;SDS011;71040;47.526;18.986;2024-03-08T14:40:32;21.38;;;14.80;;
70313;SDS011;71040;47.526;18.986;2024-03-08T14:45:33;22.48;;;14.02;;
70313;SDS011;71040;47.526;18.986;2024-03-08T14:50:37;20.17;;;13.35;;
70313;SDS011;71040;47.526;18.986;2024-03-08T14:55:37;20.03;;;12.70;;
70313;SDS011;71040;47.526;18.986;2024-03-08T15:00:38;23.90;;;14.18;;
70313;SDS011;71040;47.526;18.986;2024-03-08T15:05:44;19.80;;;12.85;;
70313;SDS011;71040;47.526;18.986;2024-03-08T15:10:48;18.50;;;12.50;;
70313;SDS011;71040;47.526;18.986;2024-03-08T15:15:56;22.20;;;13.93;;
70313;SDS011;71040;47.526;18.986;2024-03-08T15:20:59;19.10;;;13.38;;
70313;SDS011;71040;47.526;18.986;2024-03-08T15:26:02;22.27;;;13.88;;
70313;SDS011;71040;47.526;18.986;2024-03-08T15:31:03;20.75;;;14.25;;
70313;SDS011;71040;47.526;18.986;2024-03-08T15:36:12;18.38;;;12.07;;
70313;SDS011;71040;47.526;18.986;2024-03-08T15:41:15;20.92;;;13.32;;
70313;SDS011;71040;47.526;18.986;2024-03-08T15:46:17;21.42;;;13.55;;
70313;SDS011;71040;47.526;18.986;2024-03-08T15:51:22;18.58;;;12.85;;
70313;SDS011;71040;47.526;18.986;2024-03-08T15:56:26;17.23;;;11.73;;
70313;SDS011;71040;47.526;18.986;2024-03-08T16:01:26;20.48;;;13.55;;
70313;SDS011;71040;47.526;18.986;2024-03-08T16:06:27;17.58;;;13.02;;
70313;SDS011;71040;47.526;18.986;2024-03-08T16:11:30;18.88;;;12.40;;
70313;SDS011;71040;47.526;18.986;2024-03-08T16:16:32;18.90;;;12.68;;
70313;SDS011;71040;47.526;18.986;2024-03-08T16:21:33;19.75;;;12.27;;
70313;SDS011;71040;47.526;18.986;2024-03-08T16:26:34;18.48;;;12.02;;
70313;SDS011;71040;47.526;18.986;2024-03-08T16:31:35;18.92;;;12.55;;
70313;SDS011;71040;47.526;18.986;2024-03-08T16:36:37;20.20;;;13.27;;
70313;SDS011;71040;47.526;18.986;2024-03-08T16:41:40;18.15;;;12.20;;
70313;SDS011;71040;47.526;18.986;2024-03-08T16:46:43;17.83;;;12.05;;
70313;SDS011;71040;47.526;18.986;2024-03-08T16:51:46;16.63;;;11.95;;
70313;SDS011;71040;47.526;18.986;2024-03-08T16:56:46;18.40;;;13.13;;
70313;SDS011;71040;47.526;18.986;2024-03-08T17:01:49;17.85;;;12.52;;
70313;SDS011;71040;47.526;18.986;2024-03-08T17:06:52;17.05;;;11.90;;
70313;SDS011;71040;47.526;18.986;2024-03-08T17:11:57;16.90;;;11.88;;
70313;SDS011;71040;47.526;18.986;2024-03-08T17:17:01;19.85;;;13.02;;
70313;SDS011;71040;47.526;18.986;2024-03-08T17:22:02;19.35;;;12.75;;
70313;SDS011;71040;47.526;18.986;2024-03-08T17:27:03;19.52;;;12.95;;
70313;SDS011;71040;47.526;18.986;2024-03-08T17:32:04;19.38;;;12.07;;
70313;SDS011;71040;47.526;18.986;2024-03-08T17:37:07;19.45;;;13.15;;
70313;SDS011;71040;47.526;18.986;2024-03-08T17:42:07;18.83;;;12.07;;
70313;SDS011;71040;47.526;18.986;2024-03-08T17:47:07;18.93;;;12.50;;
70313;SDS011;71040;47.526;18.986;2024-03-08T17:52:08;20.48;;;12.73;;
70313;SDS011;71040;47.526;18.986;2024-03-08T17:57:11;17.20;;;11.98;;
70313;SDS011;71040;47.526;18.986;2024-03-08T18:02:11;19.87;;;12.33;;
70313;SDS011;71040;47.526;18.986;2024-03-08T18:07:17;19.23;;;12.23;;
70313;SDS011;71040;47.526;18.986;2024-03-08T18:12:23;19.80;;;12.45;;
70313;SDS011;71040;47.526;18.986;2024-03-08T18:17:23;19.95;;;12.68;;
70313;SDS011;71040;47.526;18.986;2024-03-08T18:22:24;16.65;;;12.27;;
70313;SDS011;71040;47.526;18.986;2024-03-08T18:27:28;20.40;;;12.93;;
70313;SDS011;71040;47.526;18.986;2024-03-08T18:32:44;16.65;;;11.82;;
70313;SDS011;71040;47.526;18.986;2024-03-08T18:37:47;18.40;;;12.10;;
70313;SDS011;71040;47.526;18.986;2024-03-08T18:42:50;17.42;;;12.25;;
70313;SDS011;71040;47.526;18.986;2024-03-08T18:47:54;19.27;;;12.60;;
70313;SDS011;71040;47.526;18.986;2024-03-08T18:53:00;16.15;;;12.10;;
70313;SDS011;71040;47.526;18.986;2024-03-08T18:58:03;18.85;;;12.13;;
70313;SDS011;71040;47.526;18.986;2024-03-08T19:03:06;17.23;;;11.98;;
70313;SDS011;71040;47.526;18.986;2024-03-08T19:08:13;19.55;;;12.30;;
70313;SDS011;71040;47.526;18.986;2024-03-08T19:13:19;19.13;;;12.32;;
70313;SDS011;71040;47.526;18.986;2024-03-08T19:18:20;17.75;;;12.40;;
70313;SDS011;71040;47.526;18.986;2024-03-08T19:23:23;17.57;;;12.63;;
70313;SDS011;71040;47.526;18.986;2024-03-08T19:28:24;17.65;;;11.82;;
70313;SDS011;71040;47.526;18.986;2024-03-08T19:33:24;16.88;;;11.75;;
70313;SDS011;71040;47.526;18.986;2024-03-08T19:38:27;18.67;;;11.98;;
70313;SDS011;71040;47.526;18.986;2024-03-08T19:43:31;17.83;;;12.15;;
70313;SDS011;71040;47.526;18.986;2024-03-08T19:48:34;18.98;;;11.65;;
70313;SDS011;71040;47.526;18.986;2024-03-08T19:53:35;18.05;;;12.63;;
70313;SDS011;71040;47.526;18.986;2024-03-08T19:58:39;16.55;;;11.60;;
70313;SDS011;71040;47.526;18.986;2024-03-08T20:03:42;17.52;;;12.40;;
70313;SDS011;71040;47.526;18.986;2024-03-08T20:08:45;18.75;;;12.48;;
70313;SDS011;71040;47.526;18.986;2024-03-08T20:13:45;17.70;;;11.90;;
70313;SDS011;71040;47.526;18.986;2024-03-08T20:18:49;18.73;;;12.32;;
70313;SDS011;71040;47.526;18.986;2024-03-08T20:23:53;18.83;;;12.60;;
70313;SDS011;71040;47.526;18.986;2024-03-08T20:28:53;19.15;;;13.45;;
70313;SDS011;71040;47.526;18.986;2024-03-08T20:33:54;20.50;;;12.83;;
70313;SDS011;71040;47.526;18.986;2024-03-08T20:38:56;19.63;;;12.80;;
70313;SDS011;71040;47.526;18.986;2024-03-08T20:43:57;18.08;;;13.00;;
70313;SDS011;71040;47.526;18.986;2024-03-08T20:48:58;19.67;;;13.27;;
70313;SDS011;71040;47.526;18.986;2024-03-08T20:54:01;19.52;;;13.27;;
70313;SDS011;71040;47.526;18.986;2024-03-08T20:59:05;21.23;;;13.45;;
70313;SDS011;71040;47.526;18.986;2024-03-08T21:04:08;20.88;;;13.27;;
70313;SDS011;71040;47.526;18.986;2024-03-08T21:09:12;19.95;;;12.77;;
70313;SDS011;71040;47.526;18.986;2024-03-08T21:14:15;18.95;;;12.98;;
70313;SDS011;71040;47.526;18.986;2024-03-08T21:19:18;18.98;;;13.63;;
70313;SDS011;71040;47.526;18.986;2024-03-08T21:24:19;19.65;;;12.93;;
70313;SDS011;71040;47.526;18.986;2024-03-08T21:29:25;23.23;;;14.65;;
70313;SDS011;71040;47.526;18.986;2024-03-08T21:34:31;20.25;;;13.40;;
70313;SDS011;71040;47.526;18.986;2024-03-08T21:39:35;20.90;;;14.30;;
70313;SDS011;71040;47.526;18.986;2024-03-08T21:44:38;25.08;;;15.27;;
70313;SDS011;71040;47.526;18.986;2024-03-08T21:49:41;21.92;;;14.20;;
70313;SDS011;71040;47.526;18.986;2024-03-08T21:54:44;23.27;;;14.75;;
70313;SDS011;71040;47.526;18.986;2024-03-08T21:59:45;22.00;;;14.37;;
70313;SDS011;71040;47.526;18.986;2024-03-08T22:04:47;22.05;;;13.73;;
70313;SDS011;71040;47.526;18.986;2024-03-08T22:09:50;22.08;;;14.55;;
70313;SDS011;71040;47.526;18.986;2024-03-08T22:14:54;22.55;;;14.60;;
70313;SDS011;71040;47.526;18.986;2024-03-08T22:19:54;20.13;;;14.43;;
70313;SDS011;71040;47.526;18.986;2024-03-08T22:24:55;20.37;;;13.97;;
70313;SDS011;71040;47.526;18.986;2024-03-08T22:29:56;23.55;;;14.07;;
70313;SDS011;71040;47.526;18.986;2024-03-08T22:35:01;20.10;;;14.43;;
70313;SDS011;71040;47.526;18.986;2024-03-08T22:40:04;21.27;;;13.88;;
70313;SDS011;71040;47.526;18.986;2024-03-08T22:45:13;20.02;;;13.63;;
70313;SDS011;71040;47.526;18.986;2024-03-08T22:50:18;22.75;;;14.55;;
70313;SDS011;71040;47.526;18.986;2024-03-08T22:55:24;22.15;;;14.68;;
70313;SDS011;71040;47.526;18.986;2024-03-08T23:00:26;22.60;;;14.55;;
70313;SDS011;71040;47.526;18.986;2024-03-08T23:05:26;20.20;;;14.07;;
70313;SDS011;71040;47.526;18.986;2024-03-08T23:10:27;24.85;;;16.20;;
70313;SDS011;71040;47.526;18.986;2024-03-08T23:15:32;21.52;;;14.23;;
70313;SDS011;71040;47.526;18.986;2024-03-08T23:20:39;23.05;;;15.00;;
70313;SDS011;71040;47.526;18.986;2024-03-08T23:25:43;20.58;;;14.10;;
70313;SDS011;71040;47.526;18.986;2024-03-08T23:30:44;23.60;;;15.25;;
70313;SDS011;71040;47.526;18.986;2024-03-08T23:35:49;22.95;;;15.52;;
70313;SDS011;71040;47.526;18.986;2024-03-08T23:40:50;21.85;;;15.65;;
70313;SDS011;71040;47.526;18.986;2024-03-08T23:45:53;20.73;;;14.30;;
70313;SDS011;71040;47.526;18.986;2024-03-08T23:50:56;21.95;;;14.50;;
70313;SDS011;71040;47.526;18.986;2024-03-08T23:55:59;20.40;;;14.05;;
